createdAt,value
2022-09-13T00:03:57.668Z,12.00
2022-09-13T00:08:02.205Z,11.90
2022-09-13T00:12:35.904Z,11.80
2022-09-13T00:16:39.032Z,11.80
2022-09-13T00:20:42.289Z,11.80
2022-09-13T00:24:47.014Z,11.70
2022-09-13T00:28:51.931Z,11.70
2022-09-13T00:33:25.999Z,11.70
2022-09-13T00:37:29.082Z,11.70
2022-09-13T00:41:33.751Z,11.80
2022-09-13T00:45:37.155Z,11.70
2022-09-13T00:49:42.335Z,11.60
2022-09-13T00:53:48.811Z,11.70
2022-09-13T00:58:22.566Z,11.70
2022-09-13T01:02:28.709Z,11.70
2022-09-13T01:06:34.810Z,11.70
2022-09-13T01:10:40.382Z,11.70
2022-09-13T01:14:44.830Z,11.60
2022-09-13T01:19:25.998Z,11.50
2022-09-13T01:24:06.807Z,11.40
2022-09-13T01:28:40.447Z,11.40
2022-09-13T01:33:24.409Z,11.20
2022-09-13T01:37:48.102Z,11.20
2022-09-13T01:42:02.497Z,11.20
2022-09-13T01:46:07.491Z,11.20
2022-09-13T01:50:17.190Z,11.20
2022-09-13T01:54:26.086Z,11.10
2022-09-13T01:58:58.334Z,11.00
2022-09-13T02:03:07.200Z,11.00
2022-09-13T02:07:15.422Z,11.10
2022-09-13T02:11:21.055Z,11.10
2022-09-13T02:20:46.231Z,11.20
2022-09-13T02:24:56.995Z,11.20
2022-09-13T02:29:03.321Z,11.10
2022-09-13T02:33:11.208Z,11.10
2022-09-13T02:37:14.853Z,11.10
2022-09-13T02:41:27.891Z,11.10
2022-09-13T02:45:34.921Z,11.10
2022-09-13T02:49:51.794Z,11.10
2022-09-13T02:54:24.356Z,11.00
2022-09-13T02:58:35.624Z,11.00
2022-09-13T03:02:41.060Z,11.00
2022-09-13T03:07:15.124Z,11.20
2022-09-13T03:11:31.170Z,11.20
2022-09-13T03:15:48.854Z,11.30
2022-09-13T03:20:07.157Z,11.20
2022-09-13T03:24:39.184Z,11.40
2022-09-13T03:28:54.995Z,11.50
2022-09-13T03:33:08.421Z,11.70
2022-09-13T03:37:35.136Z,11.90
2022-09-13T03:41:43.424Z,12.10
2022-09-13T03:45:50.448Z,12.30
2022-09-13T03:49:58.255Z,12.30
2022-09-13T03:54:04.883Z,12.30
2022-09-13T03:58:35.336Z,12.40
2022-09-13T04:02:38.393Z,12.50
2022-09-13T04:06:43.180Z,12.40
2022-09-13T04:10:46.211Z,12.30
2022-09-13T04:14:49.409Z,12.20
2022-09-13T04:18:52.389Z,12.10
2022-09-13T04:22:57.965Z,12.10
2022-09-13T04:27:31.892Z,12.10
2022-09-13T04:31:35.078Z,12.20
2022-09-13T04:35:39.236Z,12.30
2022-09-13T04:40:13.274Z,12.40
2022-09-13T04:44:18.900Z,12.50
2022-09-13T04:48:21.968Z,12.50
2022-09-13T04:52:25.230Z,12.50
2022-09-13T04:56:28.685Z,12.60
2022-09-13T05:00:34.166Z,12.60
2022-09-13T05:04:37.215Z,12.60
2022-09-13T05:08:40.483Z,12.70
2022-09-13T05:13:14.156Z,12.70
2022-09-13T05:17:18.730Z,12.80
2022-09-13T05:21:22.562Z,12.90
2022-09-13T05:25:56.865Z,12.90
2022-09-13T05:29:59.884Z,12.90
2022-09-13T05:34:07.394Z,12.90
2022-09-13T05:38:10.431Z,12.90
2022-09-13T05:42:47.385Z,13.00
2022-09-13T05:46:50.413Z,12.90
2022-09-13T05:50:58.128Z,13.00
2022-09-13T05:55:01.680Z,13.10
2022-09-13T05:59:04.897Z,13.20
2022-09-13T06:03:07.952Z,13.30
2022-09-13T06:07:14.213Z,13.40
2022-09-13T06:11:47.826Z,13.50
2022-09-13T06:15:50.974Z,13.80
2022-09-13T06:19:54.011Z,14.10
2022-09-13T06:23:58.713Z,14.40
2022-09-13T06:28:01.705Z,14.60
2022-09-13T06:32:05.345Z,14.90
2022-09-13T06:36:10.280Z,15.10
2022-09-13T06:40:46.950Z,15.30
2022-09-13T06:44:51.420Z,15.50
2022-09-13T06:48:55.445Z,15.80
2022-09-13T06:52:58.600Z,16.10
2022-09-13T06:57:35.299Z,16.30
2022-09-13T07:01:41.343Z,16.50
2022-09-13T07:05:44.444Z,16.60
2022-09-13T07:09:47.536Z,16.80
2022-09-13T07:14:24.485Z,17.00
2022-09-13T07:18:28.867Z,17.30
2022-09-13T07:22:31.853Z,17.60
2022-09-13T07:27:08.486Z,17.60
2022-09-13T07:31:13.504Z,17.80
2022-09-13T07:35:18.250Z,18.00
2022-09-13T07:39:51.983Z,18.20
2022-09-13T07:43:55.429Z,18.40
2022-09-13T07:48:33.372Z,18.60
2022-09-13T07:52:38.188Z,18.70
2022-09-13T07:56:42.312Z,18.90
2022-09-13T08:01:15.913Z,19.20
2022-09-13T08:05:18.994Z,19.40
2022-09-13T08:09:23.403Z,19.60
2022-09-13T08:13:26.647Z,19.60
2022-09-13T08:17:30.366Z,19.70
2022-09-13T08:21:35.245Z,19.70
2022-09-13T08:25:40.800Z,19.70
2022-09-13T08:30:14.788Z,19.80
2022-09-13T08:34:18.245Z,20.10
2022-09-13T08:38:21.299Z,20.50
2022-09-13T08:43:04.119Z,21.00
2022-09-13T08:47:27.862Z,21.90
2022-09-13T08:51:36.607Z,22.70
2022-09-13T08:55:48.954Z,23.40
2022-09-13T09:00:00.569Z,23.70
2022-09-13T09:04:13.490Z,23.90
2022-09-13T09:08:31.323Z,24.00
2022-09-13T09:12:55.117Z,24.20
2022-09-13T09:17:04.180Z,24.40
2022-09-13T09:21:14.009Z,24.70
2022-09-13T09:25:41.523Z,25.10
2022-09-13T09:29:46.308Z,25.40
2022-09-13T09:34:09.157Z,25.70
2022-09-13T09:38:34.264Z,26.10
2022-09-13T09:42:42.866Z,26.60
2022-09-13T09:46:50.263Z,26.80
2022-09-13T09:50:58.360Z,26.90
2022-09-13T09:55:30.305Z,26.90
2022-09-13T09:59:34.470Z,27.20
2022-09-13T10:03:37.493Z,27.00
2022-09-13T10:08:26.184Z,27.50
2022-09-13T10:12:32.546Z,27.70
2022-09-13T10:16:35.625Z,27.40
2022-09-13T10:21:22.840Z,26.90
2022-09-13T10:25:28.053Z,26.50
2022-09-13T10:29:32.027Z,26.20
2022-09-13T10:33:38.233Z,25.90
2022-09-13T10:37:45.512Z,25.80
2022-09-13T10:41:54.965Z,25.90
2022-09-13T10:45:59.762Z,26.00
2022-09-13T10:50:21.767Z,26.00
2022-09-13T10:54:25.599Z,25.80
2022-09-13T10:58:30.396Z,25.60
2022-09-13T11:03:00.535Z,25.60
2022-09-13T11:07:16.611Z,25.60
2022-09-13T11:11:27.534Z,25.60
2022-09-13T11:15:41.546Z,25.50
2022-09-13T11:20:07.033Z,25.30
2022-09-13T11:24:40.429Z,25.20
2022-09-13T11:28:52.434Z,25.40
2022-09-13T11:33:29.019Z,25.30
2022-09-13T11:37:42.788Z,25.20
2022-09-13T11:41:59.033Z,25.30
2022-09-13T11:46:28.390Z,25.50
2022-09-13T11:50:45.853Z,25.50
2022-09-13T11:55:04.380Z,25.40
2022-09-13T11:59:20.078Z,25.90
2022-09-13T12:03:49.096Z,26.20
2022-09-13T12:07:59.066Z,26.70
2022-09-13T12:12:06.694Z,26.90
2022-09-13T12:16:14.101Z,27.20
2022-09-13T12:20:22.996Z,27.50
2022-09-13T12:24:41.759Z,27.60
2022-09-13T12:28:50.438Z,27.40
2022-09-13T12:33:21.461Z,27.20
2022-09-13T12:37:39.742Z,27.00
2022-09-13T12:41:53.357Z,26.90
2022-09-13T12:46:28.091Z,26.60
2022-09-13T12:50:48.313Z,26.50
2022-09-13T12:55:46.805Z,26.20
2022-09-13T13:00:02.648Z,26.00
2022-09-13T13:04:26.824Z,25.90
2022-09-13T13:08:31.394Z,25.80
2022-09-13T13:12:37.183Z,25.30
2022-09-13T13:16:41.663Z,24.90
2022-09-13T13:21:05.285Z,24.50
2022-09-13T13:25:33.377Z,24.40
2022-09-13T13:29:36.734Z,24.60
2022-09-13T13:34:16.956Z,24.80
2022-09-13T13:38:48.947Z,24.80
2022-09-13T13:42:52.795Z,24.80
2022-09-13T13:47:16.356Z,24.70
2022-09-13T13:52:13.934Z,24.50
2022-09-13T13:56:47.964Z,24.20
2022-09-13T14:00:54.200Z,24.10
2022-09-13T14:05:31.847Z,24.10
2022-09-13T14:09:41.112Z,24.20
2022-09-13T14:13:58.185Z,24.20
2022-09-13T14:18:39.427Z,24.10
2022-09-13T14:22:45.091Z,24.10
2022-09-13T14:26:49.642Z,24.10
2022-09-13T14:31:24.959Z,24.10
2022-09-13T14:35:30.743Z,24.20
2022-09-13T14:39:33.986Z,24.20
2022-09-13T14:44:18.854Z,24.20
2022-09-13T14:48:31.731Z,24.20
2022-09-13T14:52:37.759Z,24.00
2022-09-13T14:56:43.752Z,23.90
2022-09-13T15:00:52.554Z,23.70
2022-09-13T15:04:59.241Z,23.60
2022-09-13T15:09:34.171Z,23.50
2022-09-13T15:13:37.993Z,23.60
2022-09-13T15:17:54.105Z,23.70
2022-09-13T15:22:16.511Z,23.90
2022-09-13T15:26:31.585Z,24.00
2022-09-13T15:30:41.790Z,24.00
2022-09-13T15:35:18.704Z,23.90
2022-09-13T15:39:23.395Z,23.90
2022-09-13T15:43:26.527Z,23.90
2022-09-13T15:47:29.791Z,23.90
2022-09-13T15:52:06.774Z,23.80
2022-09-13T15:56:16.831Z,23.80
2022-09-13T16:00:22.067Z,23.70
2022-09-13T16:04:56.280Z,23.60
2022-09-13T16:09:00.425Z,23.50
2022-09-13T16:13:05.395Z,23.30
2022-09-13T16:17:12.681Z,23.20
2022-09-13T16:21:43.947Z,23.10
2022-09-13T16:25:47.815Z,23.10
2022-09-13T16:29:52.201Z,23.00
2022-09-13T16:33:55.671Z,22.90
2022-09-13T16:37:58.853Z,22.90
2022-09-13T16:42:01.907Z,22.80
2022-09-13T16:46:10.050Z,22.80
2022-09-13T16:50:13.123Z,22.60
2022-09-13T16:54:16.238Z,22.60
2022-09-13T16:58:53.566Z,22.40
2022-09-13T17:02:58.322Z,22.40
2022-09-13T17:07:02.712Z,22.30
2022-09-13T17:11:07.770Z,22.20
2022-09-13T17:15:44.903Z,22.00
2022-09-13T17:19:49.539Z,21.90
2022-09-13T17:23:53.234Z,21.70
2022-09-13T17:27:56.319Z,21.60
2022-09-13T17:31:59.969Z,21.50
2022-09-13T17:36:07.531Z,21.30
2022-09-13T17:40:10.797Z,21.20
2022-09-13T17:44:47.930Z,21.10
2022-09-13T17:48:52.303Z,21.00
2022-09-13T17:52:56.962Z,20.90
2022-09-13T17:57:00.438Z,20.90
2022-09-13T18:01:37.624Z,20.70
2022-09-13T18:05:40.697Z,20.60
2022-09-13T18:09:45.402Z,20.60
2022-09-13T18:13:49.086Z,20.40
2022-09-13T18:17:52.114Z,20.40
2022-09-13T18:21:55.312Z,20.40
2022-09-13T18:26:29.150Z,20.40
2022-09-13T18:30:33.650Z,20.40
2022-09-13T18:34:36.697Z,20.40
2022-09-13T18:39:13.175Z,20.40
2022-09-13T18:43:16.269Z,20.40
2022-09-13T18:47:20.690Z,20.40
2022-09-13T18:51:26.287Z,20.40
2022-09-13T18:56:03.770Z,20.40
2022-09-13T19:00:08.257Z,20.30
2022-09-13T19:04:15.176Z,20.40
2022-09-13T19:08:49.852Z,20.30
2022-09-13T19:12:52.909Z,20.30
2022-09-13T19:17:00.533Z,20.30
2022-09-13T19:21:33.358Z,20.20
2022-09-13T19:25:36.453Z,20.20
2022-09-13T19:29:39.649Z,20.20
2022-09-13T19:34:17.647Z,20.10
2022-09-13T19:38:22.119Z,20.00
2022-09-13T19:42:25.551Z,19.90
2022-09-13T19:51:26.991Z,19.80
2022-09-13T19:55:33.148Z,19.80
2022-09-13T20:00:07.641Z,19.70
2022-09-13T20:04:12.874Z,19.60
2022-09-13T20:08:16.179Z,19.50
2022-09-13T20:12:24.097Z,19.40
2022-09-13T20:16:28.854Z,19.40
2022-09-13T20:20:31.925Z,19.30
2022-09-13T20:24:34.932Z,19.20
2022-09-13T20:28:39.781Z,19.10
2022-09-13T20:32:43.134Z,19.00
2022-09-13T20:37:20.062Z,18.80
2022-09-13T20:41:23.288Z,18.60
2022-09-13T20:45:27.890Z,18.60
2022-09-13T20:49:30.988Z,18.50
2022-09-13T20:53:34.768Z,18.40
2022-09-13T20:57:38.231Z,18.40
2022-09-13T21:01:42.700Z,18.30
2022-09-13T21:05:45.768Z,18.10
2022-09-13T21:09:48.907Z,18.10
2022-09-13T21:14:21.961Z,18.00
2022-09-13T21:18:26.343Z,17.90
2022-09-13T21:22:29.462Z,17.90
2022-09-13T21:26:33.580Z,17.90
2022-09-13T21:30:36.721Z,17.90
2022-09-13T21:34:41.192Z,17.80
2022-09-13T21:38:44.544Z,17.70
2022-09-13T21:43:18.339Z,17.60
2022-09-13T21:47:21.364Z,17.50
2022-09-13T21:51:27.131Z,17.50
2022-09-13T21:55:31.445Z,17.50
2022-09-13T21:59:34.446Z,17.50
2022-09-13T22:04:13.172Z,17.40
2022-09-13T22:08:17.590Z,17.30
2022-09-13T22:12:23.162Z,17.20
2022-09-13T22:16:28.439Z,17.20
2022-09-13T22:20:31.541Z,17.20
2022-09-13T22:25:10.608Z,17.20
2022-09-13T22:29:13.877Z,17.30
2022-09-13T22:33:16.907Z,17.30
2022-09-13T22:37:19.949Z,17.40
2022-09-13T22:41:26.274Z,17.40
2022-09-13T22:46:03.267Z,17.40
2022-09-13T22:50:07.146Z,17.50
2022-09-13T22:54:10.139Z,17.60
2022-09-13T22:58:15.069Z,17.60
2022-09-13T23:02:18.142Z,17.60
2022-09-13T23:06:55.040Z,17.70
2022-09-13T23:10:58.292Z,17.70
2022-09-13T23:15:02.747Z,17.70
2022-09-13T23:19:06.457Z,17.70
2022-09-13T23:23:10.949Z,17.60
2022-09-13T23:27:44.302Z,17.60
2022-09-13T23:31:49.150Z,17.60
2022-09-13T23:35:58.648Z,17.50
2022-09-13T23:40:01.861Z,17.50
2022-09-13T23:44:05.766Z,17.60
2022-09-13T23:48:10.294Z,17.70
2022-09-13T23:52:47.033Z,17.70
2022-09-13T23:56:50.152Z,17.80
